createdAt,value
2018-09-13T00:01:27.024Z,67.86
2018-09-13T00:03:54.746Z,67.16
2018-09-13T00:06:22.400Z,66.98
2018-09-13T00:08:50.030Z,67.51
2018-09-13T00:11:17.726Z,67.47
2018-09-13T00:13:45.544Z,67.83
2018-09-13T00:16:13.272Z,68.30
2018-09-13T00:18:40.957Z,68.33
2018-09-13T00:21:08.772Z,69.49
2018-09-13T00:23:36.503Z,69.05
2018-09-13T00:26:04.166Z,68.59
2018-09-13T00:28:31.825Z,69.14
2018-09-13T00:30:59.603Z,68.76
2018-09-13T00:33:27.282Z,68.44
2018-09-13T00:35:55.131Z,68.56
2018-09-13T00:38:22.739Z,68.29
2018-09-13T00:40:50.411Z,67.68
2018-09-13T00:43:18.016Z,67.64
2018-09-13T00:45:45.649Z,67.82
2018-09-13T00:48:13.339Z,67.75
2018-09-13T00:50:40.965Z,67.46
2018-09-13T00:53:08.611Z,68.89
2018-09-13T00:55:36.239Z,68.10
2018-09-13T00:58:04.532Z,68.84
2018-09-13T01:00:32.947Z,69.33
2018-09-13T01:03:00.624Z,69.74
2018-09-13T01:05:28.418Z,70.09
2018-09-13T01:07:56.082Z,69.88
2018-09-13T01:10:23.731Z,70.46
2018-09-13T01:12:51.442Z,69.93
2018-09-13T01:15:19.122Z,70.63
2018-09-13T01:17:46.838Z,70.30
2018-09-13T01:20:14.528Z,70.49
2018-09-13T01:22:42.218Z,70.76
2018-09-13T01:25:09.892Z,70.20
2018-09-13T01:27:37.558Z,69.71
2018-09-13T01:30:05.530Z,69.65
2018-09-13T01:32:33.245Z,69.62
2018-09-13T01:35:01.070Z,69.93
2018-09-13T01:37:28.733Z,69.46
2018-09-13T01:39:56.419Z,69.94
2018-09-13T01:42:24.156Z,69.50
2018-09-13T01:44:51.825Z,69.97
2018-09-13T01:47:19.510Z,70.64
2018-09-13T01:49:47.168Z,70.70
2018-09-13T01:52:15.014Z,69.84
2018-09-13T01:54:42.642Z,70.13
2018-09-13T01:57:10.176Z,71.08
2018-09-13T01:59:37.829Z,70.38
2018-09-13T02:02:05.474Z,69.86
2018-09-13T02:04:33.143Z,70.40
2018-09-13T02:07:00.781Z,69.96
2018-09-13T02:09:28.445Z,69.95
2018-09-13T02:11:56.098Z,70.24
2018-09-13T02:14:23.749Z,70.48
2018-09-13T02:16:51.749Z,69.82
2018-09-13T02:19:19.399Z,70.25
2018-09-13T02:21:47.049Z,69.51
2018-09-13T02:24:14.627Z,70.10
2018-09-13T02:26:42.276Z,69.41
2018-09-13T02:29:10.067Z,69.12
2018-09-13T02:31:37.705Z,69.70
2018-09-13T02:34:05.393Z,69.67
2018-09-13T02:39:09.070Z,69.49
2018-09-13T02:41:36.774Z,68.88
2018-09-13T02:44:05.145Z,68.50
2018-09-13T02:46:32.745Z,69.02
2018-09-13T02:49:00.367Z,69.03
2018-09-13T02:51:27.985Z,69.32
2018-09-13T02:53:55.635Z,69.87
2018-09-13T02:56:23.237Z,69.97
2018-09-13T02:58:50.933Z,68.93
2018-09-13T03:01:18.577Z,68.99
2018-09-13T03:03:46.971Z,68.58
2018-09-13T03:06:14.661Z,69.05
2018-09-13T03:08:42.253Z,68.91
2018-09-13T03:11:09.914Z,68.39
2018-09-13T03:13:37.589Z,68.83
2018-09-13T03:16:05.211Z,68.83
2018-09-13T03:18:33.181Z,68.85
2018-09-13T03:21:00.825Z,68.50
2018-09-13T03:23:28.541Z,68.41
2018-09-13T03:25:56.324Z,68.16
2018-09-13T03:28:24.041Z,68.55
2018-09-13T03:30:51.732Z,68.51
2018-09-13T03:33:19.468Z,68.99
2018-09-13T03:35:47.590Z,68.40
2018-09-13T03:38:15.216Z,68.00
2018-09-13T03:40:42.892Z,67.37
2018-09-13T03:43:10.535Z,68.06
2018-09-13T03:45:38.217Z,68.08
2018-09-13T03:48:05.947Z,68.03
2018-09-13T03:50:33.618Z,66.89
2018-09-13T03:53:01.247Z,66.57
2018-09-13T03:55:28.967Z,67.37
2018-09-13T03:57:56.606Z,67.17
2018-09-13T04:00:24.290Z,66.86
2018-09-13T04:02:52.000Z,67.43
2018-09-13T04:05:19.620Z,66.96
2018-09-13T04:07:47.308Z,67.71
2018-09-13T04:10:15.205Z,67.92
2018-09-13T04:12:42.859Z,67.00
2018-09-13T04:15:10.517Z,66.99
2018-09-13T04:17:38.131Z,66.62
2018-09-13T04:20:06.020Z,66.07
2018-09-13T04:22:33.710Z,66.48
2018-09-13T04:25:01.350Z,65.88
2018-09-13T04:27:29.017Z,66.01
2018-09-13T04:29:57.113Z,66.28
2018-09-13T04:32:24.755Z,66.39
2018-09-13T04:34:52.390Z,65.74
2018-09-13T04:37:20.019Z,65.99
2018-09-13T04:39:48.998Z,65.46
2018-09-13T04:42:16.659Z,65.60
2018-09-13T04:44:44.294Z,65.58
2018-09-13T04:47:11.971Z,65.27
2018-09-13T04:49:39.723Z,65.33
2018-09-13T04:52:07.389Z,65.36
2018-09-13T04:54:35.075Z,65.33
2018-09-13T04:57:02.729Z,65.55
2018-09-13T04:59:30.431Z,65.10
2018-09-13T05:01:58.073Z,64.14
2018-09-13T05:04:25.833Z,64.69
2018-09-13T05:06:53.519Z,63.76
2018-09-13T05:09:21.258Z,63.33
2018-09-13T05:11:49.071Z,63.27
2018-09-13T05:14:16.716Z,62.81
2018-09-13T05:16:44.344Z,62.59
2018-09-13T05:19:12.035Z,62.88
2018-09-13T05:21:39.740Z,61.79
2018-09-13T05:24:07.391Z,61.01
2018-09-13T05:26:35.074Z,61.53
2018-09-13T05:29:02.806Z,60.17
2018-09-13T05:31:30.665Z,59.97
2018-09-13T05:33:58.430Z,58.79
2018-09-13T05:36:26.098Z,59.72
2018-09-13T05:38:53.812Z,60.19
2018-09-13T05:41:21.500Z,60.22
2018-09-13T05:43:49.228Z,60.40
2018-09-13T05:46:16.829Z,59.30
2018-09-13T05:48:44.695Z,59.48
2018-09-13T05:51:12.502Z,59.07
2018-09-13T05:53:40.204Z,57.93
2018-09-13T05:56:08.147Z,57.44
2018-09-13T05:58:36.058Z,56.15
2018-09-13T06:01:03.773Z,56.76
2018-09-13T06:03:31.471Z,56.93
2018-09-13T06:05:59.137Z,57.14
2018-09-13T06:08:26.829Z,57.41
2018-09-13T06:10:54.505Z,57.32
2018-09-13T06:13:22.143Z,57.51
2018-09-13T06:15:49.795Z,58.11
2018-09-13T06:18:17.411Z,58.77
2018-09-13T06:20:45.321Z,58.07
2018-09-13T06:23:13.033Z,56.94
2018-09-13T06:25:40.730Z,56.03
2018-09-13T06:28:08.780Z,56.04
2018-09-13T06:30:36.572Z,56.99
2018-09-13T06:33:04.318Z,56.85
2018-09-13T06:35:31.954Z,57.15
2018-09-13T06:37:59.676Z,57.56
2018-09-13T06:40:27.412Z,57.59
2018-09-13T06:42:55.179Z,57.89
2018-09-13T06:45:22.867Z,57.43
2018-09-13T06:47:50.515Z,56.70
2018-09-13T06:50:18.295Z,56.93
2018-09-13T06:52:45.947Z,56.54
2018-09-13T06:55:13.618Z,57.23
2018-09-13T06:57:42.323Z,57.28
2018-09-13T07:00:10.075Z,57.23
2018-09-13T07:02:37.878Z,57.06
2018-09-13T07:05:06.256Z,57.32
2018-09-13T07:07:33.986Z,57.45
2018-09-13T07:10:01.737Z,57.21
2018-09-13T07:12:29.506Z,57.47
2018-09-13T07:14:57.251Z,56.40
2018-09-13T07:17:25.016Z,56.70
2018-09-13T07:19:52.644Z,56.85
2018-09-13T07:22:22.454Z,56.43
2018-09-13T07:24:50.116Z,56.38
2018-09-13T07:27:17.885Z,55.12
2018-09-13T07:29:49.652Z,55.15
2018-09-13T07:32:17.366Z,54.05
2018-09-13T07:34:45.079Z,54.13
2018-09-13T07:37:12.860Z,54.80
2018-09-13T07:39:40.617Z,54.05
2018-09-13T07:42:08.310Z,54.40
2018-09-13T07:44:36.016Z,54.74
2018-09-13T07:47:03.734Z,55.17
2018-09-13T07:49:31.557Z,55.42
2018-09-13T07:51:59.228Z,54.93
2018-09-13T07:54:27.000Z,55.37
2018-09-13T07:56:54.647Z,55.59
2018-09-13T07:59:22.297Z,55.53
2018-09-13T08:01:50.021Z,55.56
2018-09-13T08:04:17.731Z,55.55
2018-09-13T08:06:45.937Z,56.46
2018-09-13T08:09:13.616Z,55.60
2018-09-13T08:11:41.788Z,55.12
2018-09-13T08:14:09.426Z,55.02
2018-09-13T08:16:37.177Z,53.58
2018-09-13T08:19:04.835Z,52.98
2018-09-13T08:21:32.522Z,52.61
2018-09-13T08:24:00.454Z,53.27
2018-09-13T08:26:28.135Z,53.33
2018-09-13T08:28:56.369Z,55.21
2018-09-13T08:31:24.284Z,54.66
2018-09-13T08:33:52.110Z,53.74
2018-09-13T08:36:20.037Z,54.07
2018-09-13T08:38:47.927Z,55.23
2018-09-13T08:41:15.602Z,54.61
2018-09-13T08:43:43.257Z,54.60
2018-09-13T08:46:10.965Z,54.96
2018-09-13T08:48:38.619Z,54.35
2018-09-13T08:51:06.329Z,54.84
2018-09-13T08:53:34.047Z,55.03
2018-09-13T08:56:01.716Z,54.90
2018-09-13T08:58:29.478Z,55.46
2018-09-13T09:00:57.622Z,54.46
2018-09-13T09:03:25.332Z,53.26
2018-09-13T09:05:53.024Z,53.77
2018-09-13T09:08:20.848Z,54.68
2018-09-13T09:10:48.593Z,54.28
2018-09-13T09:13:16.231Z,53.84
2018-09-13T09:15:44.020Z,53.12
2018-09-13T09:18:11.825Z,51.98
2018-09-13T09:20:39.546Z,51.00
2018-09-13T09:23:07.140Z,51.26
2018-09-13T09:25:34.890Z,50.71
2018-09-13T09:28:02.714Z,49.60
2018-09-13T09:30:30.534Z,49.06
2018-09-13T09:32:58.402Z,47.81
2018-09-13T09:35:26.086Z,48.45
2018-09-13T09:37:53.958Z,48.92
2018-09-13T09:40:21.669Z,48.88
2018-09-13T09:42:49.562Z,50.06
2018-09-13T09:45:17.376Z,51.01
2018-09-13T09:47:45.141Z,50.22
2018-09-13T09:50:12.880Z,50.86
2018-09-13T09:52:40.726Z,50.05
2018-09-13T09:55:08.434Z,51.30
2018-09-13T10:00:15.865Z,51.80
2018-09-13T10:02:43.888Z,51.83
2018-09-13T10:05:11.557Z,53.12
2018-09-13T10:07:39.325Z,52.54
2018-09-13T10:10:07.619Z,53.14
2018-09-13T10:12:35.362Z,53.94
2018-09-13T10:15:08.756Z,53.56
2018-09-13T10:17:42.187Z,53.80
2018-09-13T10:22:18.618Z,54.39
2018-09-13T10:24:52.062Z,54.24
2018-09-13T10:27:25.502Z,52.45
2018-09-13T10:29:58.936Z,52.35
2018-09-13T10:32:32.413Z,52.31
2018-09-13T10:35:05.718Z,51.36
2018-09-13T10:37:39.226Z,51.92
2018-09-13T10:40:12.731Z,51.82
2018-09-13T10:42:46.072Z,51.61
2018-09-13T10:45:19.448Z,52.03
2018-09-13T10:47:56.923Z,52.42
2018-09-13T10:50:24.640Z,52.74
2018-09-13T10:52:57.127Z,53.26
2018-09-13T10:55:24.981Z,53.00
2018-09-13T10:57:52.599Z,52.97
2018-09-13T11:00:20.254Z,54.34
2018-09-13T11:02:47.938Z,54.14
2018-09-13T11:05:15.752Z,53.51
2018-09-13T11:07:43.374Z,53.61
2018-09-13T11:10:11.072Z,52.81
2018-09-13T11:12:43.349Z,52.73
2018-09-13T11:15:16.840Z,51.44
2018-09-13T11:17:44.479Z,50.08
2018-09-13T11:20:12.361Z,49.55
2018-09-13T11:22:40.031Z,48.51
2018-09-13T11:25:07.680Z,47.46
2018-09-13T11:27:35.289Z,47.23
2018-09-13T11:30:03.053Z,47.39
2018-09-13T11:32:30.687Z,48.38
2018-09-13T11:34:58.427Z,48.35
2018-09-13T11:37:26.157Z,48.48
2018-09-13T11:39:54.016Z,49.30
2018-09-13T11:42:22.286Z,50.33
2018-09-13T11:44:50.049Z,50.74
2018-09-13T11:47:17.694Z,51.73
2018-09-13T11:49:45.304Z,51.41
2018-09-13T11:52:12.984Z,51.94
2018-09-13T11:54:40.682Z,52.22
2018-09-13T11:57:09.390Z,52.24
2018-09-13T11:59:37.120Z,52.24
2018-09-13T12:02:04.870Z,54.25
2018-09-13T12:04:32.423Z,56.07
2018-09-13T12:07:00.181Z,59.34
2018-09-13T12:09:27.772Z,59.81
2018-09-13T12:11:56.421Z,59.35
2018-09-13T12:14:24.034Z,59.90
2018-09-13T12:16:51.669Z,61.65
2018-09-13T12:19:19.313Z,60.26
2018-09-13T12:21:46.947Z,58.79
2018-09-13T12:24:17.282Z,59.12
2018-09-13T12:26:44.950Z,56.67
2018-09-13T12:29:12.750Z,56.21
2018-09-13T12:31:40.515Z,57.69
2018-09-13T12:34:08.154Z,57.10
2018-09-13T12:36:36.100Z,58.43
2018-09-13T12:39:07.339Z,59.48
2018-09-13T12:41:34.974Z,59.45
2018-09-13T12:44:02.606Z,58.78
2018-09-13T12:46:30.238Z,59.50
2018-09-13T12:48:57.968Z,61.22
2018-09-13T12:51:25.954Z,61.41
2018-09-13T12:53:53.588Z,63.51
2018-09-13T12:56:22.025Z,62.25
2018-09-13T12:58:50.273Z,62.91
2018-09-13T13:01:17.940Z,62.90
2018-09-13T13:03:45.682Z,63.53
2018-09-13T13:06:13.704Z,64.01
2018-09-13T13:08:41.423Z,62.40
2018-09-13T13:11:09.223Z,62.29
2018-09-13T13:13:37.015Z,61.08
2018-09-13T13:16:04.699Z,61.76
2018-09-13T13:18:32.424Z,62.64
2018-09-13T13:21:00.111Z,63.94
2018-09-13T13:23:27.766Z,63.71
2018-09-13T13:25:55.432Z,63.89
2018-09-13T13:28:23.149Z,64.27
2018-09-13T13:30:50.919Z,64.38
2018-09-13T13:33:18.612Z,63.63
2018-09-13T13:35:46.564Z,64.17
2018-09-13T13:38:14.313Z,63.34
2018-09-13T13:40:42.060Z,62.15
2018-09-13T13:43:09.733Z,61.11
2018-09-13T13:45:37.492Z,60.30
2018-09-13T13:48:06.674Z,59.18
2018-09-13T13:50:34.682Z,57.43
2018-09-13T13:53:04.215Z,56.10
2018-09-13T13:55:33.970Z,55.17
2018-09-13T13:58:04.085Z,53.95
2018-09-13T14:00:33.551Z,55.46
2018-09-13T14:03:01.254Z,54.29
2018-09-13T14:05:29.086Z,53.72
2018-09-13T14:07:56.714Z,52.44
2018-09-13T14:12:58.928Z,53.48
2018-09-13T14:15:26.631Z,53.02
2018-09-13T14:17:54.293Z,53.54
2018-09-13T14:20:22.138Z,56.45
2018-09-13T14:22:50.159Z,55.81
2018-09-13T14:25:18.063Z,57.20
2018-09-13T14:27:45.902Z,58.26
2018-09-13T14:30:13.691Z,58.32
2018-09-13T14:32:41.363Z,57.83
2018-09-13T14:35:09.135Z,58.42
2018-09-13T14:37:36.963Z,59.55
2018-09-13T14:40:04.646Z,60.31
2018-09-13T14:42:32.242Z,61.12
2018-09-13T14:44:59.935Z,61.53
2018-09-13T14:47:27.641Z,61.15
2018-09-13T14:49:55.416Z,62.28
2018-09-13T14:52:23.121Z,62.36
2018-09-13T14:54:50.774Z,61.34
2018-09-13T14:57:18.817Z,62.42
2018-09-13T14:59:46.698Z,61.59
2018-09-13T15:02:14.393Z,61.96
2018-09-13T15:04:42.356Z,60.91
2018-09-13T15:07:10.206Z,61.31
2018-09-13T15:09:38.046Z,61.03
2018-09-13T15:12:05.746Z,60.50
2018-09-13T15:14:33.405Z,60.71
2018-09-13T15:17:01.110Z,60.92
2018-09-13T15:19:28.915Z,59.93
2018-09-13T15:21:56.838Z,60.28
2018-09-13T15:24:25.056Z,59.28
2018-09-13T15:26:52.858Z,58.41
2018-09-13T15:29:20.478Z,59.09
2018-09-13T15:31:48.166Z,57.91
2018-09-13T15:34:15.946Z,57.36
2018-09-13T15:36:43.709Z,57.30
2018-09-13T15:39:12.646Z,58.29
2018-09-13T15:41:40.483Z,60.07
2018-09-13T15:44:08.298Z,60.89
2018-09-13T15:46:36.086Z,60.46
2018-09-13T15:49:04.000Z,62.01
2018-09-13T15:51:31.794Z,62.09
2018-09-13T15:54:00.282Z,62.67
2018-09-13T15:56:28.130Z,63.87
2018-09-13T15:58:55.977Z,65.10
2018-09-13T16:01:23.832Z,64.36
2018-09-13T16:03:51.787Z,63.61
2018-09-13T16:06:19.864Z,63.33
2018-09-13T16:08:47.704Z,62.95
2018-09-13T16:11:15.569Z,62.92
2018-09-13T16:13:43.303Z,63.08
2018-09-13T16:16:11.151Z,64.07
2018-09-13T16:18:38.954Z,65.30
2018-09-13T16:21:07.759Z,64.96
2018-09-13T16:23:35.618Z,65.44
2018-09-13T16:26:03.517Z,65.52
2018-09-13T16:28:31.467Z,65.46
2018-09-13T16:30:59.251Z,66.40
2018-09-13T16:33:27.123Z,66.38
2018-09-13T16:35:55.689Z,66.72
2018-09-13T16:38:30.312Z,66.32
2018-09-13T16:41:04.909Z,66.32
2018-09-13T16:43:38.544Z,67.46
2018-09-13T16:46:08.149Z,66.48
2018-09-13T16:48:42.943Z,66.35
2018-09-13T16:51:11.187Z,67.38
2018-09-13T16:53:39.421Z,66.90
2018-09-13T16:56:08.318Z,66.72
2018-09-13T16:58:36.868Z,66.81
2018-09-13T17:01:04.876Z,66.38
2018-09-13T17:03:32.679Z,66.36
2018-09-13T17:06:01.215Z,66.03
2018-09-13T17:08:29.060Z,66.44
2018-09-13T17:10:56.986Z,65.41
2018-09-13T17:13:24.894Z,65.83
2018-09-13T17:15:52.840Z,66.22
2018-09-13T17:18:20.883Z,65.63
2018-09-13T17:20:48.707Z,67.45
2018-09-13T17:23:16.671Z,67.97
2018-09-13T17:25:44.533Z,68.78
2018-09-13T17:28:12.429Z,68.00
2018-09-13T17:30:40.297Z,68.03
2018-09-13T17:33:08.207Z,68.49
2018-09-13T17:35:36.145Z,68.79
2018-09-13T17:38:04.147Z,68.19
2018-09-13T17:40:32.074Z,68.40
2018-09-13T17:42:59.940Z,68.16
2018-09-13T17:45:27.869Z,68.65
2018-09-13T17:47:55.798Z,68.35
2018-09-13T17:50:23.703Z,67.97
2018-09-13T17:52:51.718Z,68.17
2018-09-13T17:55:20.851Z,69.61
2018-09-13T17:57:49.026Z,71.14
2018-09-13T18:00:17.104Z,71.68
2018-09-13T18:02:44.921Z,71.43
2018-09-13T18:05:12.829Z,69.85
2018-09-13T18:07:40.700Z,70.50
2018-09-13T18:10:08.657Z,70.63
2018-09-13T18:12:36.545Z,69.59
2018-09-13T18:15:04.650Z,68.78
2018-09-13T18:17:32.492Z,68.61
2018-09-13T18:20:00.331Z,68.21
2018-09-13T18:22:28.206Z,68.29
2018-09-13T18:24:56.042Z,68.20
2018-09-13T18:27:25.545Z,68.60
2018-09-13T18:29:53.647Z,67.55
2018-09-13T18:32:21.617Z,67.33
2018-09-13T18:34:49.734Z,67.69
2018-09-13T18:37:17.941Z,67.76
2018-09-13T18:39:46.389Z,68.30
2018-09-13T18:42:15.560Z,67.62
2018-09-13T18:44:43.485Z,68.29
2018-09-13T18:47:11.400Z,68.16
2018-09-13T18:49:39.309Z,68.73
2018-09-13T18:55:41.190Z,68.96
2018-09-13T18:58:39.537Z,68.41
2018-09-13T19:07:45.126Z,69.79
2018-09-13T19:10:46.259Z,70.13
2018-09-13T19:13:49.161Z,70.12
2018-09-13T19:23:21.926Z,70.19
2018-09-13T19:26:25.725Z,71.10
2018-09-13T19:29:22.352Z,71.35
2018-09-13T19:32:43.759Z,71.79
2018-09-13T19:35:41.157Z,73.89
2018-09-13T19:39:00.332Z,73.36
2018-09-13T19:42:20.751Z,73.63
2018-09-13T19:45:18.453Z,72.84
2018-09-13T19:51:13.859Z,74.83
2018-09-13T19:53:41.657Z,74.59
2018-09-13T20:00:22.534Z,74.58
2018-09-13T20:02:50.360Z,73.91
2018-09-13T20:05:18.062Z,74.15
2018-09-13T20:07:45.765Z,74.46
2018-09-13T20:10:13.489Z,75.47
2018-09-13T20:12:41.205Z,75.26
2018-09-13T20:15:08.893Z,74.54
2018-09-13T20:17:36.703Z,73.79
2018-09-13T20:20:04.829Z,73.82
2018-09-13T20:22:32.513Z,73.27
2018-09-13T20:25:00.286Z,72.27
2018-09-13T20:27:27.993Z,72.04
2018-09-13T20:29:55.703Z,72.71
2018-09-13T20:32:23.440Z,73.65
2018-09-13T20:34:51.185Z,73.03
2018-09-13T20:37:18.819Z,72.83
2018-09-13T20:39:46.501Z,72.22
2018-09-13T20:42:14.337Z,72.29
2018-09-13T20:44:44.633Z,72.60
2018-09-13T20:47:12.303Z,71.90
2018-09-13T20:49:39.963Z,72.94
2018-09-13T20:52:07.585Z,73.13
2018-09-13T20:54:35.286Z,73.71
2018-09-13T20:57:02.957Z,74.04
2018-09-13T20:59:30.577Z,73.34
2018-09-13T21:01:58.301Z,74.11
2018-09-13T21:04:25.918Z,74.70
2018-09-13T21:06:53.575Z,73.33
2018-09-13T21:09:21.206Z,72.22
2018-09-13T21:11:48.965Z,71.94
2018-09-13T21:14:16.649Z,73.91
2018-09-13T21:16:44.345Z,73.57
2018-09-13T21:19:11.967Z,73.88
2018-09-13T21:21:39.636Z,73.19
2018-09-13T21:24:07.426Z,73.26
2018-09-13T21:26:35.055Z,73.97
2018-09-13T21:29:02.710Z,74.10
2018-09-13T21:31:30.330Z,75.01
2018-09-13T21:33:57.950Z,73.70
2018-09-13T21:36:25.785Z,74.47
2018-09-13T21:38:53.410Z,73.96
2018-09-13T21:41:21.036Z,74.60
2018-09-13T21:43:48.659Z,74.29
2018-09-13T21:46:16.291Z,73.81
2018-09-13T21:48:43.932Z,74.99
2018-09-13T21:51:11.590Z,75.95
2018-09-13T21:53:39.261Z,77.59
2018-09-13T21:56:07.103Z,78.32
2018-09-13T21:58:34.742Z,77.70
2018-09-13T22:01:02.384Z,77.41
2018-09-13T22:03:30.087Z,77.05
2018-09-13T22:05:57.724Z,77.14
2018-09-13T22:08:25.384Z,76.98
2018-09-13T22:10:53.006Z,77.56
2018-09-13T22:13:20.662Z,77.58
2018-09-13T22:15:48.294Z,76.84
2018-09-13T22:18:15.982Z,76.26
2018-09-13T22:20:43.666Z,75.96
2018-09-13T22:23:11.282Z,75.81
2018-09-13T22:25:38.968Z,76.56
2018-09-13T22:28:06.632Z,76.39
2018-09-13T22:30:34.264Z,77.22
2018-09-13T22:33:02.264Z,76.70
2018-09-13T22:35:29.849Z,76.98
2018-09-13T22:37:57.508Z,76.56
2018-09-13T22:40:25.176Z,77.59
2018-09-13T22:42:52.799Z,77.83
2018-09-13T22:45:20.438Z,77.04
2018-09-13T22:47:48.084Z,77.39
2018-09-13T22:50:15.744Z,78.52
2018-09-13T22:52:43.438Z,78.47
2018-09-13T22:55:11.108Z,78.13
2018-09-13T22:57:38.852Z,77.64
2018-09-13T23:00:06.800Z,77.57
2018-09-13T23:02:40.284Z,78.78
2018-09-13T23:05:07.988Z,79.41
2018-09-13T23:07:35.631Z,78.72
2018-09-13T23:10:03.297Z,78.83
2018-09-13T23:12:30.922Z,79.56
2018-09-13T23:14:58.587Z,79.08
2018-09-13T23:17:26.315Z,79.27
2018-09-13T23:19:53.938Z,79.85
2018-09-13T23:22:21.701Z,80.00
2018-09-13T23:24:49.353Z,79.90
2018-09-13T23:27:17.127Z,78.65
2018-09-13T23:29:44.815Z,78.31
2018-09-13T23:32:12.538Z,78.43
2018-09-13T23:34:40.271Z,78.15
2018-09-13T23:37:07.923Z,78.26
2018-09-13T23:39:35.946Z,78.71
2018-09-13T23:42:03.473Z,78.31
2018-09-13T23:44:31.133Z,77.43
2018-09-13T23:46:58.711Z,77.31
2018-09-13T23:49:26.319Z,77.75
2018-09-13T23:51:53.960Z,76.72
2018-09-13T23:54:21.636Z,76.75
2018-09-13T23:56:49.258Z,77.57
2018-09-13T23:59:17.064Z,78.33
